Time;durP1;ratioP1;P1;durP2;ratioP2;P2;SDS_P1;SDS_P2;PMS_P1;PMS_P2;Temp;Humidity;BMP_temperature;BMP_pressure;BME280_temperature;BME280_humidity;BME280_pressure;Samples;Min_cycle;Max_cycle;Signal;HPM_P1;HPM_P2
2022/01/15 00:00:40;;;;;;;4.20;3.90;;;;;;;0.64;100.00;102832.44;4424295;32;20063;-74
2022/01/15 00:03:06;;;;;;;3.12;3.03;;;;;;;0.86;100.00;102864.81;4425690;32;20356;-74
2022/01/15 00:05:32;;;;;;;2.50;2.40;;;;;;;0.73;100.00;102833.53;4418973;32;20309;-74
2022/01/15 00:07:58;;;;;;;4.70;4.50;;;;;;;0.83;100.00;102857.03;4420371;32;20145;-73
2022/01/15 00:10:27;;;;;;;3.08;2.62;;;;;;;0.82;100.00;102860.44;4435922;32;20565;-73
2022/01/15 00:12:58;;;;;;;4.43;4.22;;;;;;;0.64;100.00;102835.88;4422865;32;20826;-73
2022/01/15 00:15:31;;;;;;;2.80;2.70;;;;;;;0.59;100.00;102840.09;4428315;32;20616;-73
2022/01/15 00:18:00;;;;;;;4.50;4.30;;;;;;;0.59;100.00;102843.53;4436954;32;20298;-73
2022/01/15 00:20:26;;;;;;;2.50;2.40;;;;;;;0.36;100.00;102809.44;4424074;32;20111;-73
2022/01/15 00:22:52;;;;;;;5.15;4.85;;;;;;;0.64;100.00;102855.69;4433991;32;20068;-73
2022/01/15 00:25:18;;;;;;;2.87;2.78;;;;;;;0.24;100.00;102783.31;4424096;32;20376;-73
2022/01/15 00:27:43;;;;;;;2.67;2.58;;;;;;;0.64;100.00;102861.72;4428058;32;20072;-74
2022/01/15 00:30:09;;;;;;;2.60;2.50;;;;;;;0.62;100.00;102854.78;4426107;32;20133;-73
2022/01/15 00:32:34;;;;;;;2.50;2.40;;;;;;;0.63;100.00;102854.84;4426638;32;20133;-74
2022/01/15 00:35:00;;;;;;;4.18;3.97;;;;;;;0.16;100.00;102798.63;4430992;32;20087;-74
2022/01/15 00:37:30;;;;;;;6.53;2.87;;;;;;;0.44;100.00;102845.78;4424544;32;20079;-74
2022/01/15 00:39:56;;;;;;;4.37;4.18;;;;;;;0.56;100.00;102863.25;4423106;32;20167;-74
2022/01/15 00:42:22;;;;;;;3.50;3.30;;;;;;;0.52;100.00;102864.03;4428399;32;20068;-74
2022/01/15 00:44:49;;;;;;;2.55;2.45;;;;;;;0.47;100.00;102865.62;4426017;32;20969;-74
2022/01/15 00:47:15;;;;;;;2.53;2.42;;;;;;;0.42;100.00;102857.75;4424255;32;20083;-73
2022/01/15 00:49:40;;;;;;;2.80;2.70;;;;;;;0.37;100.00;102854.19;4423397;32;20647;-74
2022/01/15 00:52:05;;;;;;;3.45;3.35;;;;;;;0.41;100.00;102852.56;4439121;32;20087;-74
2022/01/15 00:54:31;;;;;;;3.53;3.37;;;;;;;-0.06;100.00;102770.50;4427679;32;20068;-75
2022/01/15 00:56:56;;;;;;;3.55;3.45;;;;;;;0.19;100.00;102834.81;4439340;32;20076;-75
2022/01/15 00:59:22;;;;;;;2.50;2.40;;;;;;;-0.02;100.00;102785.22;4430021;32;20075;-73
2022/01/15 01:01:47;;;;;;;2.70;2.60;;;;;;;0.32;100.00;102853.19;4423380;32;20546;-72
2022/01/15 01:04:12;;;;;;;2.40;2.30;;;;;;;0.31;100.00;102838.56;4423896;32;20149;-75
2022/01/15 01:06:38;;;;;;;2.55;2.45;;;;;;;0.33;100.00;102840.34;4442923;32;20707;-73
2022/01/15 01:09:03;;;;;;;4.95;4.65;;;;;;;0.24;100.00;102814.31;4424984;32;20120;-74
2022/01/15 01:11:44;;;;;;;2.50;2.40;;;;;;;-1.29;100.00;102563.62;4429467;32;20848;-74
2022/01/15 01:24:31;;;;;;;2.75;2.65;;;;;;;0.23;100.00;102824.59;4438767;32;20059;-74
2022/01/15 01:27:01;;;;;;;4.15;3.95;;;;;;;0.20;100.00;102807.28;4429555;32;20780;-74
2022/01/15 01:29:41;;;;;;;2.50;2.40;;;;;;;0.22;100.00;102812.50;4432098;32;20132;-73
2022/01/15 01:32:13;;;;;;;3.12;3.03;;;;;;;-0.85;100.00;102630.94;4430757;32;20134;-73
2022/01/15 01:34:39;;;;;;;;;;;;;;;0.23;100.00;102811.69;4426987;32;20098;-74
2022/01/15 01:39:46;;;;;;;2.40;2.30;;;;;;;0.19;100.00;102797.81;4445827;32;20078;-73
2022/01/15 01:42:30;;;;;;;2.60;2.50;;;;;;;0.25;100.00;102804.84;4428464;32;20668;-74
2022/01/15 01:45:09;;;;;;;3.90;3.75;;;;;;;0.24;100.00;102810.81;4426032;32;20064;-74
2022/01/15 01:47:41;;;;;;;2.70;2.60;;;;;;;-0.97;100.00;102591.94;4442871;32;20117;-73
2022/01/15 01:50:11;;;;;;;2.40;2.30;;;;;;;0.28;100.00;102797.16;4424806;32;20072;-73
2022/01/15 01:52:36;;;;;;;2.42;2.33;;;;;;;0.29;100.00;102796.31;4439555;32;20091;-73
2022/01/15 01:55:03;;;;;;;4.07;3.87;;;;;;;-0.08;100.00;102733.44;4427271;32;20726;-73
2022/01/15 01:57:28;;;;;;;2.30;2.20;;;;;;;0.03;100.00;102736.31;4441226;32;20388;-74
2022/01/15 01:59:53;;;;;;;4.32;4.12;;;;;;;-0.29;100.00;102684.78;4424323;32;20085;-75
2022/01/15 02:02:19;;;;;;;2.70;2.60;;;;;;;0.33;100.00;102785.22;4431329;32;20878;-73
2022/01/15 02:04:44;;;;;;;2.55;2.45;;;;;;;0.19;100.00;102762.53;4424969;32;20076;-74
2022/01/15 02:07:09;;;;;;;2.62;2.53;;;;;;;-0.09;100.00;102719.69;4428947;32;20106;-74
2022/01/15 02:09:35;;;;;;;2.50;2.40;;;;;;;0.25;100.00;102768.69;4423952;32;20060;-73
2022/01/15 02:12:00;;;;;;;3.70;3.60;;;;;;;0.38;100.00;102784.50;4417284;32;20080;-75
2022/01/15 02:14:27;;;;;;;4.03;3.85;;;;;;;0.16;100.00;102746.97;4434284;31;20068;-72
2022/01/15 02:16:52;;;;;;;3.87;3.75;;;;;;;0.30;100.00;102772.22;4426366;32;20086;-73
2022/01/15 02:19:17;;;;;;;2.80;2.70;;;;;;;-0.31;100.00;102666.69;4429640;32;20874;-74
2022/01/15 02:24:14;;;;;;;2.90;2.80;;;;;;;0.36;100.00;102765.53;4438657;32;20478;-74
2022/01/15 02:26:39;;;;;;;2.40;2.30;;;;;;;0.37;100.00;102769.84;4430722;32;20927;-73
2022/01/15 02:29:05;;;;;;;4.50;3.95;;;;;;;0.37;100.00;102766.38;4423129;32;20086;-74
2022/01/15 02:31:31;;;;;;;2.50;2.40;;;;;;;0.35;100.00;102761.19;4431874;32;20114;-74
2022/01/15 02:33:57;;;;;;;2.87;2.78;;;;;;;0.38;100.00;102763.84;4426618;32;20056;-74
2022/01/15 02:36:28;;;;;;;2.40;2.30;;;;;;;0.33;100.00;102742.19;4423709;32;20896;-74
2022/01/15 02:38:53;;;;;;;3.65;3.55;;;;;;;0.27;100.00;102731.72;4429879;32;20845;-75
2022/01/15 02:41:26;;;;;;;2.30;2.20;;;;;;;0.41;100.00;102755.28;4439715;32;20086;-74
2022/01/15 02:43:51;;;;;;;3.97;3.80;;;;;;;0.43;100.00;102757.91;4443186;32;20194;-74
2022/01/15 02:49:08;;;;;;;2.70;2.60;;;;;;;0.15;100.00;102700.47;4425296;32;20098;-74
2022/01/15 02:51:34;;;;;;;3.05;2.95;;;;;;;0.45;100.00;102754.53;4427534;32;20087;-74
2022/01/15 02:54:00;;;;;;;8.02;4.65;;;;;;;0.43;100.00;102738.13;4433582;32;20221;-74
2022/01/15 02:56:28;;;;;;;2.42;2.33;;;;;;;0.50;100.00;102749.44;4424543;32;20070;-75
2022/01/15 02:58:54;;;;;;;3.65;3.55;;;;;;;-0.47;100.00;102584.59;4437598;32;20562;-74
2022/01/15 03:01:19;;;;;;;2.53;2.42;;;;;;;0.46;100.00;102745.94;4432665;32;20099;-75
2022/01/15 03:03:45;;;;;;;2.42;2.33;;;;;;;0.51;100.00;102743.47;4424938;32;20136;-73
2022/01/15 03:06:11;;;;;;;3.10;3.00;;;;;;;0.42;100.00;102728.59;4421994;32;20072;-74
2022/01/15 03:08:37;;;;;;;2.50;2.40;;;;;;;0.48;100.00;102733.03;4428184;32;20491;-73
2022/01/15 03:11:03;;;;;;;3.75;3.62;;;;;;;0.42;100.00;102712.25;4422481;32;20079;-74
2022/01/15 03:13:29;;;;;;;2.20;2.10;;;;;;;0.14;100.00;102676.34;4424985;32;20086;-74
2022/01/15 03:15:54;;;;;;;4.57;4.37;;;;;;;0.32;100.00;102695.66;4424317;32;20056;-73
2022/01/15 03:18:21;;;;;;;2.60;2.50;;;;;;;0.50;100.00;102727.09;4417684;32;20094;-74
2022/01/15 03:20:46;;;;;;;2.42;2.33;;;;;;;0.45;100.00;102731.28;4425970;32;20059;-72
2022/01/15 03:23:12;;;;;;;2.90;2.80;;;;;;;0.29;100.00;102701.66;4426578;32;20090;-74
2022/01/15 03:25:37;;;;;;;2.35;2.25;;;;;;;0.46;100.00;102724.38;4425621;32;20086;-74
2022/01/15 03:28:03;;;;;;;4.45;4.25;;;;;;;0.25;100.00;102688.63;4421165;32;20071;-73
2022/01/15 03:30:28;;;;;;;2.87;2.78;;;;;;;0.04;100.00;102645.12;4423073;32;20099;-74
2022/01/15 03:32:53;;;;;;;5.12;4.90;;;;;;;0.45;100.00;102710.59;4435291;32;20084;-74
2022/01/15 03:35:19;;;;;;;4.35;4.15;;;;;;;0.14;100.00;102657.37;4420451;32;20068;-75
2022/01/15 03:37:44;;;;;;;2.55;2.45;;;;;;;0.45;100.00;102710.59;4422756;32;20545;-74
2022/01/15 03:40:11;;;;;;;2.35;2.25;;;;;;;0.45;100.00;102705.44;4425837;32;20870;-74
2022/01/15 03:42:36;;;;;;;2.50;2.40;;;;;;;0.47;100.00;102710.66;4424651;32;20508;-74
2022/01/15 03:45:02;;;;;;;3.90;3.75;;;;;;;0.46;100.00;102708.88;4424986;32;20084;-74
2022/01/15 03:47:28;;;;;;;2.40;2.30;;;;;;;0.47;100.00;102708.06;4432694;32;20064;-74
2022/01/15 03:49:53;;;;;;;3.75;3.65;;;;;;;0.43;100.00;102701.94;4419803;32;20246;-74
2022/01/15 03:52:18;;;;;;;3.17;2.97;;;;;;;0.44;100.00;102695.97;4429212;32;20343;-74
2022/01/15 03:54:44;;;;;;;2.58;2.47;;;;;;;-0.09;100.00;102607.84;4425781;32;20116;-74
2022/01/15 03:57:09;;;;;;;2.70;2.60;;;;;;;-0.17;100.00;102588.75;4420559;32;20627;-74
2022/01/15 03:59:34;;;;;;;2.55;2.45;;;;;;;0.26;100.00;102667.13;4427570;32;20064;-73
2022/01/15 04:02:00;;;;;;;4.22;4.03;;;;;;;0.33;100.00;102682.78;4435139;32;20072;-74
2022/01/15 04:04:25;;;;;;;2.40;2.30;;;;;;;0.11;100.00;102634.09;4426127;32;20067;-74
2022/01/15 04:06:51;;;;;;;3.15;3.05;;;;;;;0.16;100.00;102646.28;4432601;32;20129;-73
2022/01/15 04:09:17;;;;;;;3.20;3.10;;;;;;;-0.27;100.00;102570.47;4421751;32;20075;-74
2022/01/15 04:11:43;;;;;;;2.92;2.83;;;;;;;0.02;100.00;102619.28;4427415;32;20574;-74
2022/01/15 04:14:08;;;;;;;2.75;2.65;;;;;;;0.09;100.00;102646.97;4419106;32;20059;-75
2022/01/15 04:16:33;;;;;;;2.37;2.28;;;;;;;0.13;100.00;102635.00;4424093;32;20128;-74
2022/01/15 04:18:59;;;;;;;3.97;3.80;;;;;;;-0.05;100.00;102596.75;4423890;32;20079;-74
2022/01/15 04:21:25;;;;;;;2.70;2.60;;;;;;;0.15;100.00;102628.16;4424392;32;20217;-74
2022/01/15 04:23:50;;;;;;;2.95;2.85;;;;;;;0.26;100.00;102647.37;4428579;32;20607;-73
2022/01/15 04:26:16;;;;;;;2.30;2.20;;;;;;;-0.75;100.00;102469.63;4416734;32;20068;-74
2022/01/15 04:28:41;;;;;;;2.40;2.30;;;;;;;0.26;100.00;102649.94;4428972;32;20201;-74
2022/01/15 04:31:08;;;;;;;2.45;2.35;;;;;;;0.14;100.00;102650.53;4422017;32;20537;-73
2022/01/15 04:33:37;;;;;;;2.50;2.40;;;;;;;0.16;100.00;102645.38;4439647;32;20060;-73
2022/01/15 04:36:03;;;;;;;4.15;3.95;;;;;;;-0.90;100.00;102480.44;4424215;32;20091;-73
2022/01/15 04:38:30;;;;;;;3.67;3.37;;;;;;;0.17;100.00;102645.44;4431926;32;20083;-75
2022/01/15 04:40:55;;;;;;;4.45;4.25;;;;;;;0.16;100.00;102642.81;4436415;32;20068;-74
2022/01/15 04:43:21;;;;;;;2.50;2.40;;;;;;;-0.04;100.00;102613.97;4430709;32;20087;-74
2022/01/15 04:45:46;;;;;;;2.22;2.12;;;;;;;-0.31;100.00;102558.31;4424772;32;20072;-74
2022/01/15 04:48:12;;;;;;;2.28;2.17;;;;;;;-0.33;100.00;102560.00;4427643;32;20636;-74
2022/01/15 04:50:37;;;;;;;2.55;2.45;;;;;;;-0.13;100.00;102586.25;4427057;32;20916;-75
2022/01/15 04:53:04;;;;;;;4.43;4.22;;;;;;;0.17;100.00;102634.25;4422653;32;21114;-73
2022/01/15 04:55:29;;;;;;;2.72;2.62;;;;;;;-0.75;100.00;102477.37;4426013;32;20079;-74
2022/01/15 04:57:54;;;;;;;3.53;3.42;;;;;;;-0.32;100.00;102553.13;4420470;32;20141;-74
2022/01/15 05:00:20;;;;;;;2.75;2.65;;;;;;;0.01;100.00;102616.66;4429463;32;20068;-74
2022/01/15 05:02:45;;;;;;;2.40;2.30;;;;;;;-0.27;100.00;102556.69;4438392;32;20079;-74
2022/01/15 05:05:11;;;;;;;2.25;2.15;;;;;;;-0.43;100.00;102533.12;4423395;32;20090;-75
2022/01/15 05:07:36;;;;;;;3.20;3.00;;;;;;;-0.73;100.00;102467.97;4441386;32;20120;-74
2022/01/15 05:10:03;;;;;;;3.72;3.60;;;;;;;0.15;100.00;102630.75;4426275;32;20394;-74
2022/01/15 05:12:31;;;;;;;2.53;2.42;;;;;;;0.18;100.00;102625.63;4429176;32;20138;-74
2022/01/15 05:14:57;;;;;;;4.35;4.15;;;;;;;0.19;100.00;102627.41;4425117;32;20079;-75
2022/01/15 05:17:22;;;;;;;2.33;2.22;;;;;;;0.19;100.00;102625.69;4431388;32;20083;-75
2022/01/15 05:19:48;;;;;;;2.67;2.58;;;;;;;0.23;100.00;102629.22;4427761;32;20063;-74
2022/01/15 05:22:13;;;;;;;2.47;2.37;;;;;;;0.01;100.00;102594.31;4427978;32;20130;-73
2022/01/15 05:24:39;;;;;;;2.40;2.30;;;;;;;0.22;100.00;102632.66;4431892;32;21077;-74
2022/01/15 05:27:04;;;;;;;3.83;3.67;;;;;;;0.15;100.00;102615.25;4452380;32;20083;-74
2022/01/15 05:29:29;;;;;;;2.70;2.60;;;;;;;0.13;100.00;102596.28;4426809;32;20064;-74
2022/01/15 05:31:55;;;;;;;4.12;3.92;;;;;;;-0.13;100.00;102554.41;4425707;32;20075;-74
2022/01/15 05:34:20;;;;;;;3.25;3.15;;;;;;;0.27;100.00;102619.81;4429190;32;20091;-74
2022/01/15 05:36:46;;;;;;;2.80;2.70;;;;;;;-0.78;100.00;102488.50;4420242;32;20060;-74
2022/01/15 05:39:11;;;;;;;2.80;2.70;;;;;;;-0.07;100.00;102580.34;4423628;32;20605;-74
2022/01/15 05:41:37;;;;;;;2.47;2.37;;;;;;;0.21;100.00;102624.84;4430299;32;20072;-74
2022/01/15 05:44:03;;;;;;;3.83;3.70;;;;;;;0.20;100.00;102621.38;4423786;31;20512;-74
2022/01/15 05:46:33;;;;;;;2.30;2.20;;;;;;;0.07;100.00;102601.31;4427469;32;20561;-74
2022/01/15 05:48:59;;;;;;;3.80;3.67;;;;;;;0.17;100.00;102616.16;4424742;31;20147;-74
2022/01/15 05:51:29;;;;;;;2.60;2.50;;;;;;;-0.03;100.00;102592.50;4440819;32;20079;-74
2022/01/15 05:53:55;;;;;;;3.62;3.53;;;;;;;0.16;100.00;102610.13;4429726;32;20126;-73
2022/01/15 05:56:20;;;;;;;2.40;2.30;;;;;;;-0.28;100.00;102552.34;4424019;32;20080;-74
2022/01/15 05:58:46;;;;;;;7.10;6.80;;;;;;;0.15;100.00;102615.25;4359286;32;20634;-73
2022/01/15 06:01:11;;;;;;;2.60;2.50;;;;;;;0.20;100.00;102613.63;4427070;32;20273;-73
2022/01/15 06:03:37;;;;;;;2.40;2.30;;;;;;;0.23;100.00;102611.12;4426952;32;20075;-75
2022/01/15 06:06:02;;;;;;;4.05;3.85;;;;;;;0.23;100.00;102613.72;4422719;32;20792;-74
2022/01/15 06:08:28;;;;;;;2.60;2.50;;;;;;;0.12;100.00;102586.78;4422099;32;20087;-74
2022/01/15 06:10:53;;;;;;;3.22;3.12;;;;;;;0.25;100.00;102595.69;4426865;32;20132;-73
2022/01/15 06:13:18;;;;;;;5.45;2.92;;;;;;;0.19;100.00;102597.28;4427222;32;20534;-74
2022/01/15 06:15:44;;;;;;;2.37;2.28;;;;;;;0.17;100.00;102587.75;4428990;32;20087;-74
2022/01/15 06:18:09;;;;;;;2.30;2.20;;;;;;;0.25;100.00;102601.72;4426401;32;20094;-75
2022/01/15 06:20:34;;;;;;;2.65;2.55;;;;;;;0.07;100.00;102566.03;4423123;32;20068;-73
2022/01/15 06:23:00;;;;;;;4.65;4.28;;;;;;;-0.27;100.00;102529.19;4426380;32;20095;-74
2022/01/15 06:25:25;;;;;;;2.40;2.30;;;;;;;0.11;100.00;102603.13;4426034;32;20075;-74
2022/01/15 06:27:51;;;;;;;3.97;3.80;;;;;;;0.12;100.00;102598.00;4420958;32;20532;-74
2022/01/15 06:30:16;;;;;;;2.87;2.67;;;;;;;0.08;100.00;102605.63;4431396;32;20951;-75
2022/01/15 06:32:41;;;;;;;2.30;2.20;;;;;;;0.07;100.00;102599.59;4424281;32;20083;-73
2022/01/15 06:35:09;;;;;;;3.00;2.90;;;;;;;0.09;100.00;102594.47;4427919;32;20080;-73
2022/01/15 06:37:34;;;;;;;2.33;2.22;;;;;;;0.02;100.00;102587.41;4425553;32;20211;-74
2022/01/15 06:39:59;;;;;;;3.78;3.65;;;;;;;-0.02;100.00;102586.47;4423051;32;20075;-75
2022/01/15 06:42:25;;;;;;;2.80;2.70;;;;;;;-0.10;100.00;102569.97;4430177;32;20068;-75
2022/01/15 06:44:50;;;;;;;3.60;3.42;;;;;;;-0.64;100.00;102487.09;4425116;32;20136;-73
2022/01/15 06:47:15;;;;;;;2.30;2.20;;;;;;;-0.12;100.00;102590.59;4427629;32;20847;-75
2022/01/15 06:49:41;;;;;;;3.40;3.20;;;;;;;-0.22;100.00;102563.72;4424357;32;20068;-75
2022/01/15 06:52:06;;;;;;;2.70;2.60;;;;;;;-0.15;100.00;102559.53;4438264;32;20132;-74
2022/01/15 06:54:32;;;;;;;2.30;2.20;;;;;;;-0.02;100.00;102587.38;4425088;32;20588;-73
2022/01/15 06:56:57;;;;;;;4.15;3.95;;;;;;;-0.79;100.00;102450.63;4425635;32;20086;-72
2022/01/15 06:59:22;;;;;;;2.40;2.30;;;;;;;-0.12;100.00;102558.72;4429449;32;20133;-73
2022/01/15 07:01:48;;;;;;;2.60;2.50;;;;;;;-0.91;100.00;102425.44;4423275;32;20076;-72
2022/01/15 07:04:13;;;;;;;2.35;2.25;;;;;;;0.00;100.00;102579.66;4424687;32;20099;-73
2022/01/15 07:06:39;;;;;;;2.30;2.20;;;;;;;-0.17;100.00;102579.28;4429652;32;20529;-73
2022/01/15 07:09:04;;;;;;;3.58;3.47;;;;;;;0.05;100.00;102578.03;4425029;32;20076;-75
2022/01/15 07:11:29;;;;;;;2.40;2.30;;;;;;;0.01;100.00;102583.97;4426937;32;20081;-73
2022/01/15 07:13:55;;;;;;;4.25;4.05;;;;;;;-0.16;100.00;102544.00;4431148;32;20075;-73
2022/01/15 07:16:20;;;;;;;2.30;2.20;;;;;;;-0.03;100.00;102575.28;4423129;32;20079;-73
2022/01/15 07:18:46;;;;;;;2.60;2.50;;;;;;;-1.03;100.00;102423.47;4426659;32;20494;-73
2022/01/15 07:21:12;;;;;;;2.90;2.75;;;;;;;-0.11;100.00;102553.59;4426329;32;20074;-73
2022/01/15 07:23:37;;;;;;;2.20;2.10;;;;;;;0.04;100.00;102572.84;4427373;31;20609;-74
2022/01/15 07:26:03;;;;;;;4.25;4.05;;;;;;;-1.05;100.00;102401.94;4422101;32;20059;-73
2022/01/15 07:28:30;;;;;;;2.50;2.40;;;;;;;-0.17;100.00;102550.03;4424954;31;20446;-74
2022/01/15 07:30:56;;;;;;;4.12;3.92;;;;;;;-0.01;100.00;102567.59;4422077;32;20075;-74
2022/01/15 07:33:21;;;;;;;2.70;2.60;;;;;;;0.06;100.00;102568.59;4423879;32;20634;-72
2022/01/15 07:35:46;;;;;;;2.65;2.55;;;;;;;0.06;100.00;102578.91;4420884;32;20335;-73
2022/01/15 07:38:13;;;;;;;3.08;2.97;;;;;;;-0.65;100.00;102448.38;4419482;32;20068;-72
2022/01/15 07:40:38;;;;;;;2.70;2.60;;;;;;;-0.45;100.00;102477.19;4419643;32;20147;-73
2022/01/15 07:43:03;;;;;;;4.20;4.00;;;;;;;0.12;100.00;102566.13;4421194;32;20115;-72
2022/01/15 07:45:29;;;;;;;2.60;2.50;;;;;;;-0.15;100.00;102530.28;4420838;32;20237;-72
2022/01/15 07:47:54;;;;;;;4.35;4.15;;;;;;;0.10;100.00;102575.56;4420697;32;20761;-73
2022/01/15 07:50:23;;;;;;;2.97;2.87;;;;;;;0.09;100.00;102568.66;4423278;32;20084;-72
2022/01/15 07:52:56;;;;;;;3.85;3.62;;;;;;;0.16;100.00;102570.50;4419728;32;20087;-72
2022/01/15 07:55:22;;;;;;;2.60;2.50;;;;;;;0.08;100.00;102554.91;4422951;32;20260;-74
2022/01/15 07:57:47;;;;;;;3.65;3.45;;;;;;;-0.74;100.00;102412.97;4415468;32;20202;-73
2022/01/15 08:00:13;;;;;;;3.10;3.00;;;;;;;-0.25;100.00;102490.53;4417420;32;20083;-72
2022/01/15 08:02:39;;;;;;;2.80;2.70;;;;;;;0.20;100.00;102572.31;4436400;32;20082;-72
2022/01/15 08:05:05;;;;;;;3.87;3.72;;;;;;;-0.04;100.00;102516.78;4419088;32;20574;-72
2022/01/15 08:07:30;;;;;;;2.80;2.70;;;;;;;0.28;100.00;102557.88;4419066;32;20140;-73
2022/01/15 08:09:56;;;;;;;4.55;4.35;;;;;;;-0.23;100.00;102475.94;4421775;32;20670;-73
2022/01/15 08:12:22;;;;;;;2.70;2.60;;;;;;;-0.18;100.00;102492.41;4424342;32;20063;-73
2022/01/15 08:14:49;;;;;;;2.80;2.70;;;;;;;0.30;100.00;102555.31;4422836;32;20064;-73
2022/01/15 08:17:14;;;;;;;2.67;2.58;;;;;;;-0.22;100.00;102462.19;4432553;32;20162;-73
2022/01/15 08:19:41;;;;;;;2.75;2.65;;;;;;;0.20;100.00;102520.69;4425452;32;20076;-73
2022/01/15 08:22:06;;;;;;;3.67;3.58;;;;;;;0.40;100.00;102544.31;4421727;32;20498;-73
2022/01/15 08:24:31;;;;;;;2.80;2.70;;;;;;;0.47;100.00;102547.91;4415391;32;20092;-72
2022/01/15 08:26:57;;;;;;;4.15;3.95;;;;;;;0.48;100.00;102544.47;4404209;32;20053;-72
2022/01/15 08:29:22;;;;;;;2.60;2.50;;;;;;;0.44;100.00;102540.09;4406176;32;20204;-72
2022/01/15 08:31:47;;;;;;;2.78;2.67;;;;;;;0.12;100.00;102489.56;4406430;32;20099;-73
2022/01/15 08:34:13;;;;;;;2.72;2.62;;;;;;;0.10;100.00;102474.88;4403253;32;20092;-72
2022/01/15 08:36:38;;;;;;;3.87;3.60;;;;;;;0.22;100.00;102494.91;4404151;32;20111;-73
2022/01/15 08:39:04;;;;;;;4.45;4.25;;;;;;;0.24;100.00;102481.22;4399541;32;20525;-73
2022/01/15 08:41:30;;;;;;;2.70;2.60;;;;;;;-1.47;100.00;102190.66;4398005;32;20173;-72
2022/01/15 08:43:55;;;;;;;4.28;4.07;;;;;;;0.44;100.00;102524.59;4396274;32;20108;-72
2022/01/15 08:46:21;;;;;;;2.80;2.70;;;;;;;0.04;100.00;102460.16;4397423;32;20090;-73
2022/01/15 08:48:46;;;;;;;2.95;2.85;;;;;;;0.56;100.00;102540.31;4398906;32;20081;-73
2022/01/15 08:51:12;;;;;;;2.65;2.55;;;;;;;-0.55;100.00;102346.31;4401654;32;20091;-71
2022/01/15 08:53:37;;;;;;;2.83;2.72;;;;;;;0.56;100.00;102514.50;4403193;32;20065;-72
2022/01/15 08:56:03;;;;;;;3.92;3.78;;;;;;;0.22;100.00;102457.06;4406724;32;20458;-73
2022/01/15 08:58:29;;;;;;;2.50;2.40;;;;;;;0.72;100.00;102529.47;4404207;32;20436;-73
2022/01/15 09:00:55;;;;;;;4.25;4.05;;;;;;;0.69;100.00;102526.81;4418933;32;20085;-73
2022/01/15 09:03:23;;;;;;;2.80;2.70;;;;;;;0.68;100.00;102531.94;4405706;32;20065;-72
2022/01/15 09:05:50;;;;;;;2.90;2.80;;;;;;;0.72;100.00;102533.72;4402489;32;20171;-72
2022/01/15 09:08:16;;;;;;;2.60;2.50;;;;;;;0.75;100.00;102538.97;4407360;32;20072;-73
2022/01/15 09:10:42;;;;;;;3.28;2.97;;;;;;;0.38;100.00;102468.53;4415858;32;20527;-72
2022/01/15 09:13:09;;;;;;;2.85;2.75;;;;;;;0.83;100.00;102539.97;4402183;32;20088;-73
2022/01/15 09:15:34;;;;;;;2.80;2.70;;;;;;;0.84;100.00;102551.16;4421987;32;20121;-72
2022/01/15 09:18:00;;;;;;;3.70;3.60;;;;;;;0.82;100.00;102540.81;4400215;32;20499;-73
2022/01/15 09:20:25;;;;;;;2.62;2.53;;;;;;;0.84;100.00;102538.25;4406559;32;20625;-72
2022/01/15 09:22:51;;;;;;;3.70;3.55;;;;;;;0.82;100.00;102525.28;4406386;32;20077;-72
2022/01/15 09:25:16;;;;;;;2.92;2.83;;;;;;;0.81;100.00;102509.78;4418706;32;20086;-72
2022/01/15 09:30:26;;;;;;;3.00;2.90;;;;;;;0.94;100.00;102528.13;4442984;32;20473;-73
2022/01/15 09:32:52;;;;;;;4.40;4.20;;;;;;;1.03;100.00;102534.28;4422535;32;20072;-73
2022/01/15 09:35:23;;;;;;;2.80;2.70;;;;;;;1.07;100.00;102529.19;4424069;32;20087;-73
2022/01/15 09:37:52;;;;;;;2.62;2.53;;;;;;;0.62;100.00;102452.59;4419353;32;20672;-72
2022/01/15 09:40:18;;;;;;;2.70;2.60;;;;;;;1.11;100.00;102519.78;4430494;32;20068;-72
2022/01/15 09:42:44;;;;;;;2.67;2.58;;;;;;;1.15;100.00;102524.16;4420509;32;20083;-71
2022/01/15 09:45:10;;;;;;;2.90;2.80;;;;;;;1.16;100.00;102523.28;4421387;32;20153;-71
2022/01/15 09:47:35;;;;;;;2.62;2.53;;;;;;;1.01;100.00;102490.31;4423884;32;20087;-73
2022/01/15 09:50:03;;;;;;;4.55;4.35;;;;;;;1.20;100.00;102512.13;4417308;32;20597;-73
2022/01/15 09:52:30;;;;;;;2.70;2.60;;;;;;;1.23;100.00;102509.62;4436611;32;20064;-72
2022/01/15 09:54:55;;;;;;;4.05;3.87;;;;;;;1.32;100.00;102509.78;4419852;32;20190;-72
2022/01/15 09:57:21;;;;;;;2.67;2.58;;;;;;;1.39;100.00;102505.56;4419889;32;21263;-72
2022/01/15 09:59:46;;;;;;;3.00;2.90;;;;;;;1.41;100.00;102503.00;4426536;32;20068;-72
2022/01/15 10:02:11;;;;;;;2.83;2.72;;;;;;;1.45;100.00;102502.19;4415809;32;20068;-72
2022/01/15 10:04:37;;;;;;;2.90;2.80;;;;;;;1.23;100.00;102447.53;4424629;32;20098;-71
2022/01/15 10:07:12;;;;;;;4.60;4.40;;;;;;;1.44;100.00;102492.69;4420331;32;20091;-72
2022/01/15 10:09:38;;;;;;;3.00;2.80;;;;;;;1.52;100.00;102491.94;4434390;32;20067;-72
2022/01/15 10:12:04;;;;;;;4.22;4.03;;;;;;;1.53;100.00;102491.09;4420569;32;20687;-73
2022/01/15 10:14:31;;;;;;;2.80;2.70;;;;;;;0.58;100.00;102321.63;4418585;32;20075;-71
2022/01/15 10:16:57;;;;;;;4.50;4.30;;;;;;;1.51;100.00;102482.44;4432442;32;20907;-72
2022/01/15 10:19:33;;;;;;;2.90;2.80;;;;;;;1.50;100.00;102480.69;4433797;32;20265;-73
2022/01/15 10:22:05;;;;;;;4.45;4.25;;;;;;;1.52;100.00;102479.00;4434425;32;20064;-73
2022/01/15 10:24:30;;;;;;;2.80;2.70;;;;;;;1.46;100.00;102476.31;4450203;32;20076;-72
2022/01/15 10:26:56;;;;;;;4.35;4.15;;;;;;;1.59;100.00;102498.06;4419663;32;20156;-74
2022/01/15 10:29:21;;;;;;;2.67;2.58;;;;;;;1.63;100.00;102475.72;4422133;32;20071;-72
2022/01/15 10:31:46;;;;;;;2.75;2.65;;;;;;;1.56;100.00;102464.37;4425372;32;20987;-72
2022/01/15 10:34:29;;;;;;;2.80;2.70;;;;;;;1.48;100.00;102453.06;4418669;32;20076;-72
2022/01/15 10:37:08;;;;;;;4.85;4.55;;;;;;;1.55;100.00;102455.75;4420749;32;20079;-73
2022/01/15 10:39:34;;;;;;;2.80;2.70;;;;;;;1.76;100.00;102475.00;4439480;32;20183;-72
2022/01/15 10:41:59;;;;;;;4.25;4.05;;;;;;;1.78;100.00;102470.72;4420387;32;20148;-72
2022/01/15 10:44:28;;;;;;;2.80;2.70;;;;;;;1.80;100.00;102474.19;4423751;32;20591;-73
2022/01/15 10:47:10;;;;;;;4.45;4.25;;;;;;;1.62;100.00;102430.81;4432946;32;20116;-73
2022/01/15 10:49:37;;;;;;;3.67;3.47;;;;;;;1.96;100.00;102464.91;4423144;32;20090;-73
2022/01/15 10:52:17;;;;;;;4.45;4.25;;;;;;;1.93;100.00;102463.16;4437718;32;20079;-72
2022/01/15 10:55:08;;;;;;;2.80;2.70;;;;;;;1.90;100.00;102457.06;4439696;32;20522;-72
2022/01/15 10:57:40;;;;;;;2.60;2.50;;;;;;;1.94;100.00;102449.34;4441348;32;20468;-73
2022/01/15 11:00:19;;;;;;;3.25;3.15;;;;;;;2.02;100.00;102451.16;4438215;32;20075;-72
2022/01/15 11:03:03;;;;;;;2.87;2.78;;;;;;;2.02;100.00;102444.25;4438424;32;20195;-73
2022/01/15 11:05:31;;;;;;;2.80;2.70;;;;;;;2.00;100.00;102443.37;4420359;32;20056;-72
2022/01/15 11:08:17;;;;;;;3.80;3.67;;;;;;;2.01;100.00;102439.94;4427389;32;20068;-74
2022/01/15 11:10:44;;;;;;;2.50;2.40;;;;;;;2.10;100.00;102446.94;4434639;32;20588;-74
2022/01/15 11:13:14;;;;;;;3.05;2.95;;;;;;;2.19;100.00;102439.28;4437101;32;20210;-72
2022/01/15 11:15:40;;;;;;;2.90;2.80;;;;;;;2.21;100.00;102447.06;4426506;32;20210;-72
2022/01/15 11:18:06;;;;;;;4.45;4.25;;;;;;;1.93;100.00;102392.37;4419563;32;20592;-73
2022/01/15 11:20:32;;;;;;;2.67;2.58;;;;;;;2.05;100.00;102412.38;4425691;32;20074;-74
2022/01/15 11:22:59;;;;;;;4.68;4.47;;;;;;;2.30;100.00;102435.06;4425344;31;20083;-73
2022/01/15 11:25:25;;;;;;;3.00;2.90;;;;;;;1.70;100.00;102345.53;4435228;32;20214;-73
2022/01/15 11:27:50;;;;;;;4.53;4.32;;;;;;;2.07;100.00;102418.44;4421380;32;20072;-72
2022/01/15 11:30:18;;;;;;;2.80;2.70;;;;;;;1.87;100.00;102363.84;4424321;32;20148;-72
2022/01/15 11:32:43;;;;;;;2.90;2.80;;;;;;;2.36;100.00;102442.88;4422273;32;20072;-72
2022/01/15 11:35:09;;;;;;;2.85;2.75;;;;;;;2.15;100.00;102385.69;4418950;32;20472;-72
2022/01/15 11:37:42;;;;;;;2.70;2.60;;;;;;;2.04;100.00;102354.50;4425835;32;20223;-72
2022/01/15 11:40:32;;;;;;;2.80;2.70;;;;;;;2.58;100.00;102435.31;4422537;32;20596;-72
2022/01/15 11:43:18;;;;;;;4.47;4.28;;;;;;;2.52;100.00;102432.69;4446930;32;20721;-72